createdAt,value
2023-04-02T00:00:05.544Z,20.00
2023-04-02T00:03:01.701Z,19.50
2023-04-02T00:05:50.480Z,17.00
2023-04-02T00:08:25.859Z,16.20
2023-04-02T00:11:01.841Z,16.60
2023-04-02T00:13:33.994Z,15.50
2023-04-02T00:16:04.625Z,16.00
2023-04-02T00:18:34.291Z,14.30
2023-04-02T00:21:11.126Z,13.50
2023-04-02T00:23:41.309Z,11.70
2023-04-02T00:26:23.428Z,12.00
2023-04-02T00:28:52.144Z,9.50
2023-04-02T00:31:20.886Z,10.30
2023-04-02T00:33:50.235Z,10.40
2023-04-02T00:36:24.696Z,11.70
2023-04-02T00:38:57.377Z,13.80
2023-04-02T00:41:29.980Z,12.00
2023-04-02T00:43:59.719Z,12.80
2023-04-02T00:46:32.279Z,12.70
2023-04-02T00:49:14.492Z,13.80
2023-04-02T00:52:12.815Z,15.40
2023-04-02T00:54:56.836Z,19.10
2023-04-02T00:57:26.037Z,19.50
2023-04-02T01:00:15.925Z,16.00
2023-04-02T01:02:44.012Z,17.40
2023-04-02T01:05:15.133Z,14.50
2023-04-02T01:08:10.865Z,15.40
2023-04-02T01:10:51.259Z,15.60
2023-04-02T01:13:24.813Z,18.00
2023-04-02T01:16:11.685Z,16.10
2023-04-02T01:18:51.872Z,14.20
2023-04-02T01:21:52.824Z,15.50
2023-04-02T01:24:24.593Z,18.00
2023-04-02T01:26:54.679Z,15.70
2023-04-02T01:29:52.216Z,17.40
2023-04-02T01:32:23.107Z,17.50
2023-04-02T01:34:52.380Z,17.60
2023-04-02T01:37:34.146Z,18.40
2023-04-02T01:40:26.444Z,17.10
2023-04-02T01:43:22.062Z,17.10
2023-04-02T01:45:50.636Z,15.40
2023-04-02T01:48:24.531Z,16.10
2023-04-02T01:50:55.727Z,17.90
2023-04-02T01:53:27.848Z,16.30
2023-04-02T01:56:01.953Z,16.90
2023-04-02T01:58:32.637Z,15.70
2023-04-02T02:01:09.400Z,14.40
2023-04-02T02:03:40.315Z,14.50
2023-04-02T02:06:13.268Z,11.70
2023-04-02T02:08:49.474Z,11.10
2023-04-02T02:11:21.628Z,11.00
2023-04-02T02:13:57.487Z,11.20
2023-04-02T02:16:28.811Z,10.30
2023-04-02T02:19:01.885Z,10.30
2023-04-02T02:21:38.656Z,10.60
2023-04-02T02:24:32.480Z,11.50
2023-04-02T02:27:23.619Z,11.40
2023-04-02T02:29:57.708Z,11.30
2023-04-02T02:32:30.929Z,12.10
2023-04-02T02:35:23.664Z,13.30
2023-04-02T02:38:06.306Z,11.30
2023-04-02T02:40:40.858Z,12.70
2023-04-02T02:43:13.456Z,12.40
2023-04-02T02:45:43.375Z,12.30
2023-04-02T02:48:19.977Z,12.20
2023-04-02T02:50:49.758Z,10.50
2023-04-02T02:53:23.710Z,10.10
2023-04-02T02:55:58.924Z,10.50
2023-04-02T02:58:32.737Z,10.20
2023-04-02T03:01:12.801Z,10.20
2023-04-02T03:03:42.367Z,10.00
2023-04-02T03:06:16.618Z,10.60
2023-04-02T03:08:53.928Z,10.90
2023-04-02T03:11:49.512Z,11.30
2023-04-02T03:14:37.969Z,11.10
2023-04-02T03:17:18.622Z,9.60
2023-04-02T03:20:02.254Z,9.80
2023-04-02T03:23:04.201Z,9.50
2023-04-02T03:25:44.488Z,9.50
2023-04-02T03:28:24.627Z,8.70
2023-04-02T03:31:08.107Z,9.20
2023-04-02T03:33:40.908Z,7.70
2023-04-02T03:36:33.425Z,8.40
2023-04-02T03:39:10.135Z,7.50
2023-04-02T03:41:51.001Z,6.70
2023-04-02T03:44:44.945Z,8.10
2023-04-02T03:47:30.811Z,7.60
2023-04-02T03:50:11.716Z,7.40
2023-04-02T03:52:40.334Z,7.10
2023-04-02T03:55:16.027Z,6.70
2023-04-02T03:57:49.410Z,6.50
2023-04-02T04:00:26.053Z,6.70
2023-04-02T04:02:59.160Z,5.40
2023-04-02T04:05:35.197Z,5.20
2023-04-02T04:08:08.423Z,6.20
2023-04-02T04:10:36.341Z,6.80
2023-04-02T04:13:17.809Z,6.50
2023-04-02T04:15:45.741Z,6.40
2023-04-02T04:18:43.850Z,6.00
2023-04-02T04:21:31.313Z,6.20
2023-04-02T04:24:17.397Z,6.00
2023-04-02T04:27:13.043Z,6.10
2023-04-02T04:29:57.997Z,6.10
2023-04-02T04:32:34.858Z,5.90
2023-04-02T04:35:21.531Z,6.20
2023-04-02T04:37:59.262Z,6.00
2023-04-02T04:40:34.439Z,6.50
2023-04-02T04:43:11.479Z,6.50
2023-04-02T04:45:56.303Z,6.20
2023-04-02T04:48:36.508Z,5.90
2023-04-02T04:51:25.660Z,5.30
2023-04-02T04:53:55.794Z,5.70
2023-04-02T04:56:28.616Z,6.50
2023-04-02T04:59:23.558Z,8.00
2023-04-02T05:02:06.363Z,7.70
2023-04-02T05:04:40.857Z,6.60
2023-04-02T05:07:19.754Z,7.30
2023-04-02T05:09:57.698Z,6.80
2023-04-02T05:12:35.107Z,6.80
2023-04-02T05:15:10.170Z,7.10
2023-04-02T05:17:41.844Z,8.70
2023-04-02T05:20:21.364Z,9.20
2023-04-02T05:22:55.635Z,8.40
2023-04-02T05:25:29.914Z,11.70
2023-04-02T05:28:13.634Z,12.20
2023-04-02T05:30:56.550Z,11.50
2023-04-02T05:33:28.924Z,8.80
2023-04-02T05:36:04.777Z,10.70
2023-04-02T05:38:37.793Z,14.50
2023-04-02T05:41:31.543Z,11.40
2023-04-02T05:44:24.494Z,11.20
2023-04-02T05:47:07.202Z,10.50
2023-04-02T05:49:50.970Z,12.30
2023-04-02T05:52:51.801Z,9.80
2023-04-02T05:55:29.665Z,10.60
2023-04-02T05:58:33.907Z,11.20
2023-04-02T06:00:59.874Z,10.50
2023-04-02T06:03:39.548Z,12.50
2023-04-02T06:06:40.044Z,12.60
2023-04-02T06:09:37.984Z,11.30
2023-04-02T06:12:12.247Z,10.60
2023-04-02T06:14:41.256Z,9.20
2023-04-02T06:17:18.259Z,10.40
2023-04-02T06:19:48.016Z,9.50
2023-04-02T06:22:34.897Z,9.10
2023-04-02T06:25:20.629Z,8.20
2023-04-02T06:27:51.777Z,9.00
2023-04-02T06:30:30.320Z,7.90
2023-04-02T06:32:59.200Z,9.90
2023-04-02T06:35:28.389Z,7.80
2023-04-02T06:38:03.801Z,8.30
2023-04-02T06:40:50.426Z,8.50
2023-04-02T06:43:53.232Z,11.50
2023-04-02T06:46:53.211Z,7.80
2023-04-02T06:49:29.101Z,9.90
2023-04-02T06:52:03.500Z,10.10
2023-04-02T06:54:32.118Z,8.80
2023-04-02T06:57:07.411Z,7.70
2023-04-02T06:59:39.138Z,7.60
2023-04-02T07:02:29.108Z,8.10
2023-04-02T07:05:02.890Z,10.20
2023-04-02T07:07:32.406Z,8.00
2023-04-02T07:10:03.466Z,8.80
2023-04-02T07:12:31.389Z,9.30
2023-04-02T07:14:59.334Z,10.00
2023-04-02T07:17:27.901Z,8.90
2023-04-02T07:19:56.023Z,10.00
2023-04-02T07:22:25.727Z,10.70
2023-04-02T07:24:59.327Z,11.70
2023-04-02T07:27:28.014Z,13.90
2023-04-02T07:29:55.856Z,12.90
2023-04-02T07:32:23.896Z,9.90
2023-04-02T07:34:51.966Z,11.60
2023-04-02T07:37:19.929Z,9.20
2023-04-02T07:39:47.873Z,9.50
2023-04-02T07:42:15.773Z,8.40
2023-04-02T07:44:43.729Z,8.80
2023-04-02T07:47:11.767Z,7.90
2023-04-02T07:49:39.883Z,8.00
2023-04-02T07:52:07.877Z,8.40
2023-04-02T07:54:39.848Z,7.90
2023-04-02T07:57:07.795Z,7.90
2023-04-02T07:59:35.634Z,9.50
2023-04-02T08:02:04.510Z,7.30
2023-04-02T08:04:32.521Z,9.10
2023-04-02T08:07:01.554Z,8.40
2023-04-02T08:09:29.421Z,6.80
2023-04-02T08:11:57.461Z,7.30
2023-04-02T08:14:25.431Z,11.50
2023-04-02T08:16:56.034Z,18.10
2023-04-02T08:19:24.647Z,12.70
2023-04-02T08:21:53.780Z,9.70
2023-04-02T08:24:22.588Z,10.10
2023-04-02T08:26:51.496Z,8.50
2023-04-02T08:29:20.022Z,8.20
2023-04-02T08:31:48.100Z,7.10
2023-04-02T08:34:16.264Z,6.10
2023-04-02T08:36:45.480Z,5.50
2023-04-02T08:39:13.896Z,5.30
2023-04-02T08:41:55.959Z,7.30
2023-04-02T08:44:36.673Z,6.60
2023-04-02T08:47:07.456Z,5.10
2023-04-02T08:49:53.484Z,5.70
2023-04-02T08:52:30.589Z,7.30
2023-04-02T08:55:00.476Z,6.00
2023-04-02T08:57:51.422Z,7.20
2023-04-02T09:00:20.396Z,8.00
2023-04-02T09:02:56.435Z,7.70
2023-04-02T09:05:29.606Z,5.70
2023-04-02T09:07:59.809Z,5.40
2023-04-02T09:11:03.234Z,4.30
2023-04-02T09:13:34.078Z,3.90
2023-04-02T09:16:12.701Z,6.70
2023-04-02T09:18:41.583Z,5.20
2023-04-02T09:21:21.905Z,4.00
2023-04-02T09:23:50.162Z,3.90
2023-04-02T09:26:27.555Z,3.70
2023-04-02T09:29:03.427Z,4.10
2023-04-02T09:31:42.581Z,3.70
2023-04-02T09:34:33.625Z,3.70
2023-04-02T09:37:17.124Z,3.50
2023-04-02T09:39:45.528Z,3.00
2023-04-02T09:42:38.186Z,3.40
2023-04-02T09:45:23.776Z,3.80
2023-04-02T09:47:54.008Z,4.10
2023-04-02T09:50:21.840Z,4.50
2023-04-02T09:52:50.534Z,5.40
2023-04-02T09:55:21.640Z,4.00
2023-04-02T09:57:52.008Z,3.50
2023-04-02T10:00:31.569Z,4.20
2023-04-02T10:03:19.751Z,3.60
2023-04-02T10:05:48.772Z,5.30
2023-04-02T10:08:25.422Z,4.80
2023-04-02T10:10:57.527Z,5.20
2023-04-02T10:13:28.903Z,4.50
2023-04-02T10:16:12.076Z,6.60
2023-04-02T10:18:54.411Z,7.10
2023-04-02T10:21:35.867Z,5.80
2023-04-02T10:24:12.419Z,5.50
2023-04-02T10:26:57.976Z,7.40
2023-04-02T10:29:51.595Z,6.00
2023-04-02T10:32:30.688Z,5.10
2023-04-02T10:35:16.584Z,4.40
2023-04-02T10:38:06.374Z,7.80
2023-04-02T10:41:00.696Z,6.50
2023-04-02T10:46:06.335Z,3.90
2023-04-02T10:49:06.376Z,5.40
2023-04-02T10:51:43.205Z,4.90
2023-04-02T10:54:32.511Z,3.80
2023-04-02T10:57:12.244Z,5.40
2023-04-02T10:59:46.568Z,4.40
2023-04-02T11:02:45.522Z,7.80
2023-04-02T11:05:43.902Z,4.90
2023-04-02T11:08:29.894Z,5.20
2023-04-02T11:11:10.402Z,6.00
2023-04-02T11:14:00.596Z,7.30
2023-04-02T11:16:29.367Z,6.60
2023-04-02T11:19:15.463Z,8.20
2023-04-02T11:21:58.634Z,6.10
2023-04-02T11:24:32.706Z,6.30
2023-04-02T11:27:14.407Z,6.70
2023-04-02T11:29:55.665Z,9.40
2023-04-02T11:32:29.745Z,9.20
2023-04-02T11:35:07.011Z,7.70
2023-04-02T11:37:45.512Z,6.10
2023-04-02T11:40:16.036Z,7.30
2023-04-02T11:42:49.107Z,6.80
2023-04-02T11:45:20.902Z,7.90
2023-04-02T11:48:01.411Z,5.40
2023-04-02T11:50:40.141Z,6.60
2023-04-02T11:53:11.520Z,8.20
2023-04-02T11:55:42.912Z,8.20
2023-04-02T11:58:13.757Z,6.60
2023-04-02T12:00:47.436Z,6.40
2023-04-02T12:03:46.343Z,6.50
2023-04-02T12:06:51.352Z,6.60
2023-04-02T12:09:23.787Z,4.40
2023-04-02T12:11:53.767Z,6.00
2023-04-02T12:14:36.822Z,5.00
2023-04-02T12:17:14.126Z,7.50
2023-04-02T12:19:48.413Z,7.50
2023-04-02T12:22:31.693Z,5.40
2023-04-02T12:25:22.083Z,4.80
2023-04-02T12:28:25.408Z,10.40
2023-04-02T12:31:03.519Z,5.30
2023-04-02T12:33:39.892Z,4.70
2023-04-02T12:36:19.760Z,6.30
2023-04-02T12:38:49.715Z,6.20
2023-04-02T12:41:27.410Z,4.80
2023-04-02T12:44:00.508Z,6.20
2023-04-02T12:46:30.591Z,6.10
2023-04-02T12:49:35.461Z,9.00
2023-04-02T12:52:10.340Z,5.70
2023-04-02T12:54:48.414Z,9.90
2023-04-02T12:57:25.041Z,9.10
2023-04-02T12:59:54.717Z,9.80
2023-04-02T13:02:29.938Z,13.10
2023-04-02T13:05:03.386Z,7.40
2023-04-02T13:07:33.488Z,8.10
2023-04-02T13:10:04.056Z,8.10
2023-04-02T13:12:40.476Z,6.40
2023-04-02T13:15:28.319Z,9.30
2023-04-02T13:18:07.429Z,9.60
2023-04-02T13:20:38.095Z,6.80
2023-04-02T13:23:31.107Z,8.90
2023-04-02T13:26:02.040Z,5.60
2023-04-02T13:28:30.180Z,7.60
2023-04-02T13:30:58.115Z,9.10
2023-04-02T13:33:26.001Z,11.90
2023-04-02T13:35:54.179Z,10.50
2023-04-02T13:38:22.371Z,8.80
2023-04-02T13:40:51.406Z,8.20
2023-04-02T13:43:20.685Z,7.90
2023-04-02T13:45:51.993Z,9.40
2023-04-02T13:48:19.999Z,7.80
2023-04-02T13:50:47.910Z,9.60
2023-04-02T13:53:29.408Z,9.90
2023-04-02T13:55:57.230Z,8.20
2023-04-02T13:58:25.621Z,11.60
2023-04-02T14:00:53.764Z,13.80
2023-04-02T14:03:23.440Z,9.10
2023-04-02T14:06:08.313Z,10.80
2023-04-02T14:09:04.414Z,13.30
2023-04-02T14:12:02.099Z,10.50
2023-04-02T14:15:00.715Z,10.50
2023-04-02T14:17:34.751Z,10.90
2023-04-02T14:20:16.211Z,12.50
2023-04-02T14:22:53.452Z,10.60
2023-04-02T14:25:37.647Z,14.20
2023-04-02T14:28:27.021Z,10.60
2023-04-02T14:31:07.504Z,7.30
2023-04-02T14:34:02.469Z,7.90
2023-04-02T14:36:51.875Z,7.70
2023-04-02T14:39:40.437Z,7.40
2023-04-02T14:42:19.354Z,6.10
2023-04-02T14:45:29.097Z,5.10
2023-04-02T14:48:24.718Z,7.20
2023-04-02T14:51:00.854Z,6.40
2023-04-02T14:53:43.016Z,9.50
2023-04-02T14:56:13.016Z,7.60
2023-04-02T14:58:46.802Z,8.00
2023-04-02T15:03:54.346Z,7.80
2023-04-02T15:06:27.685Z,5.40
2023-04-02T15:09:14.613Z,6.80
2023-04-02T15:11:51.364Z,10.20
2023-04-02T15:14:41.012Z,8.00
2023-04-02T15:17:12.510Z,6.20
2023-04-02T15:19:40.508Z,7.10
2023-04-02T15:22:28.515Z,6.00
2023-04-02T15:25:24.754Z,10.70
2023-04-02T15:28:08.258Z,7.30
2023-04-02T15:30:44.279Z,7.70
2023-04-02T15:33:33.557Z,11.40
2023-04-02T15:36:11.024Z,8.30
2023-04-02T15:38:45.265Z,6.50
2023-04-02T15:41:26.610Z,8.70
2023-04-02T15:44:09.319Z,8.60
2023-04-02T15:46:43.356Z,6.70
2023-04-02T15:49:32.890Z,6.90
2023-04-02T15:52:13.028Z,8.10
2023-04-02T15:55:09.742Z,8.30
2023-04-02T15:57:59.018Z,8.40
2023-04-02T16:00:33.518Z,6.80
2023-04-02T16:03:26.729Z,8.10
2023-04-02T16:06:25.627Z,8.80
2023-04-02T16:09:01.568Z,6.90
2023-04-02T16:11:29.613Z,8.70
2023-04-02T16:14:18.605Z,10.70
2023-04-02T16:16:48.831Z,7.00
2023-04-02T16:19:25.672Z,6.50
2023-04-02T16:22:02.777Z,7.40
2023-04-02T16:24:30.675Z,6.40
2023-04-02T16:27:17.674Z,8.20
2023-04-02T16:29:55.496Z,6.90
2023-04-02T16:33:02.958Z,8.60
2023-04-02T16:36:02.132Z,5.90
2023-04-02T16:38:48.525Z,9.20
2023-04-02T16:41:28.765Z,9.80
2023-04-02T16:44:38.333Z,7.90
2023-04-02T16:47:21.609Z,15.20
2023-04-02T16:49:58.356Z,15.30
2023-04-02T16:53:28.855Z,22.50
2023-04-02T16:56:18.509Z,18.20
2023-04-02T16:59:17.240Z,15.10
2023-04-02T17:02:18.563Z,12.00
2023-04-02T17:04:54.030Z,8.90
2023-04-02T17:07:35.830Z,9.20
2023-04-02T17:10:27.138Z,8.70
2023-04-02T17:13:12.909Z,9.40
2023-04-02T17:15:42.368Z,8.70
2023-04-02T17:18:16.401Z,10.80
2023-04-02T17:20:44.766Z,11.40
2023-04-02T17:23:14.530Z,10.90
2023-04-02T17:25:49.306Z,9.60
2023-04-02T17:28:25.415Z,12.70
2023-04-02T17:30:57.615Z,11.20
2023-04-02T17:33:27.380Z,10.60
2023-04-02T17:35:55.272Z,9.30
2023-04-02T17:38:37.486Z,11.20
2023-04-02T17:41:14.433Z,10.10
2023-04-02T17:44:13.387Z,10.70
2023-04-02T17:47:13.987Z,12.50
2023-04-02T17:49:57.205Z,15.00
2023-04-02T17:52:53.283Z,11.90
2023-04-02T17:55:58.414Z,15.80
2023-04-02T17:58:47.538Z,10.20
2023-04-02T18:01:30.774Z,10.30
2023-04-02T18:04:08.470Z,10.00
2023-04-02T18:07:01.135Z,9.70
2023-04-02T18:09:38.719Z,11.20
2023-04-02T18:12:20.897Z,8.90
2023-04-02T18:15:16.796Z,8.90
2023-04-02T18:17:51.194Z,8.20
2023-04-02T18:20:22.165Z,10.50
2023-04-02T18:23:08.824Z,10.40
2023-04-02T18:25:51.359Z,9.80
2023-04-02T18:28:33.869Z,11.70
2023-04-02T18:31:07.512Z,9.60
2023-04-02T18:34:06.800Z,11.40
2023-04-02T18:36:46.532Z,8.20
2023-04-02T18:39:27.041Z,11.00
2023-04-02T18:42:28.749Z,10.90
2023-04-02T18:45:31.812Z,11.10
2023-04-02T18:48:12.066Z,10.10
2023-04-02T18:50:45.805Z,17.30
2023-04-02T18:56:01.524Z,9.10
2023-04-02T18:58:41.032Z,9.10
2023-04-02T19:01:14.611Z,11.30
2023-04-02T19:03:51.481Z,8.10
2023-04-02T19:06:36.768Z,9.70
2023-04-02T19:09:15.192Z,8.60
2023-04-02T19:11:43.572Z,13.30
2023-04-02T19:14:13.610Z,10.20
2023-04-02T19:17:17.214Z,8.00
2023-04-02T19:20:08.843Z,8.80
2023-04-02T19:22:43.011Z,10.50
2023-04-02T19:25:26.561Z,8.20
2023-04-02T19:28:29.293Z,9.40
2023-04-02T19:31:22.084Z,10.20
2023-04-02T19:33:59.114Z,12.30
2023-04-02T19:36:30.058Z,15.40
2023-04-02T19:39:15.076Z,14.00
2023-04-02T19:41:48.053Z,13.70
2023-04-02T19:44:16.919Z,15.00
2023-04-02T19:46:45.357Z,11.50
2023-04-02T19:49:33.892Z,10.60
2023-04-02T19:52:01.748Z,8.00
2023-04-02T19:54:29.649Z,11.10
2023-04-02T19:56:57.622Z,10.40
2023-04-02T19:59:25.696Z,15.80
2023-04-02T20:01:53.680Z,19.80
2023-04-02T20:04:21.601Z,15.80
2023-04-02T20:06:49.607Z,17.60
2023-04-02T20:09:17.508Z,17.10
2023-04-02T20:11:45.524Z,13.90
2023-04-02T20:14:13.430Z,12.60
2023-04-02T20:16:41.833Z,9.80
2023-04-02T20:19:11.029Z,14.50
2023-04-02T20:21:39.090Z,9.20
2023-04-02T20:24:07.863Z,11.70
2023-04-02T20:26:36.247Z,10.80
2023-04-02T20:29:04.769Z,10.90
2023-04-02T20:31:32.961Z,9.50
2023-04-02T20:34:02.581Z,10.00
2023-04-02T20:36:31.193Z,9.90
2023-04-02T20:38:59.115Z,7.80
2023-04-02T20:41:27.398Z,8.50
2023-04-02T20:43:56.643Z,7.50
2023-04-02T20:46:25.537Z,8.60
2023-04-02T20:48:53.497Z,10.40
2023-04-02T20:51:21.930Z,6.80
2023-04-02T20:53:49.774Z,7.20
2023-04-02T20:56:18.966Z,6.90
2023-04-02T20:58:46.842Z,5.70
2023-04-02T21:01:19.484Z,6.50
2023-04-02T21:03:48.210Z,6.70
2023-04-02T21:06:19.485Z,7.20
2023-04-02T21:08:48.245Z,5.20
2023-04-02T21:11:16.870Z,7.20
2023-04-02T21:13:45.203Z,6.60
2023-04-02T21:16:16.645Z,5.60
2023-04-02T21:18:45.881Z,8.80
2023-04-02T21:21:14.864Z,5.90
2023-04-02T21:23:44.099Z,6.20
2023-04-02T21:26:15.335Z,8.10
2023-04-02T21:28:44.682Z,5.80
2023-04-02T21:31:17.980Z,7.20
2023-04-02T21:33:49.174Z,7.50
2023-04-02T21:36:19.831Z,8.00
2023-04-02T21:38:50.416Z,5.80
2023-04-02T21:41:19.854Z,5.70
2023-04-02T21:43:48.762Z,5.80
2023-04-02T21:46:19.039Z,6.50
2023-04-02T21:48:48.363Z,4.10
2023-04-02T21:51:37.597Z,6.80
2023-04-02T21:54:06.109Z,7.90
2023-04-02T21:56:36.738Z,4.60
2023-04-02T21:59:06.373Z,4.40
2023-04-02T22:01:41.109Z,4.80
2023-04-02T22:04:11.401Z,6.60
2023-04-02T22:06:41.067Z,4.00
2023-04-02T22:09:12.721Z,4.80
2023-04-02T22:11:47.428Z,6.30
2023-04-02T22:14:15.788Z,5.70
2023-04-02T22:16:44.061Z,3.80
2023-04-02T22:19:14.714Z,4.50
2023-04-02T22:21:43.428Z,5.50
2023-04-02T22:24:14.572Z,5.00
2023-04-02T22:26:44.295Z,4.60
2023-04-02T22:29:12.275Z,4.50
2023-04-02T22:31:40.440Z,6.20
2023-04-02T22:34:08.388Z,5.60
2023-04-02T22:36:36.254Z,4.60
2023-04-02T22:39:06.777Z,5.40
2023-04-02T22:41:35.566Z,6.10
2023-04-02T22:44:03.538Z,3.80
2023-04-02T22:46:31.710Z,5.40
2023-04-02T22:48:59.572Z,5.10
2023-04-02T22:51:27.963Z,4.00
2023-04-02T22:53:56.755Z,4.40
2023-04-02T22:56:28.653Z,7.00
2023-04-02T22:58:56.671Z,6.00
2023-04-02T23:01:28.590Z,5.00
2023-04-02T23:03:56.715Z,5.10
2023-04-02T23:06:25.407Z,6.10
2023-04-02T23:08:53.605Z,6.70
2023-04-02T23:11:24.110Z,5.60
2023-04-02T23:13:53.973Z,5.60
2023-04-02T23:16:22.805Z,5.20
2023-04-02T23:18:51.060Z,5.00
2023-04-02T23:21:20.168Z,6.00
2023-04-02T23:23:48.616Z,7.50
2023-04-02T23:26:22.338Z,9.90
2023-04-02T23:28:50.863Z,13.20
2023-04-02T23:31:21.890Z,8.60
2023-04-02T23:33:51.577Z,7.40
2023-04-02T23:36:25.216Z,6.50
2023-04-02T23:41:26.872Z,7.10
2023-04-02T23:43:56.710Z,6.80
2023-04-02T23:46:25.214Z,6.10
2023-04-02T23:48:54.092Z,7.20
2023-04-02T23:51:22.551Z,7.20
2023-04-02T23:53:51.508Z,5.70
2023-04-02T23:56:19.827Z,8.20
2023-04-02T23:58:48.490Z,8.30
